sensor_id;sensor_type;location;lat;lon;timestamp;P1;durP1;ratioP1;P2;durP2;ratioP2
30303;SDS011;17112;48.636;10.152;2023-05-20T00:00:07;5.45;;;2.08;;
30303;SDS011;17112;48.636;10.152;2023-05-20T00:02:34;4.35;;;2.20;;
30303;SDS011;17112;48.636;10.152;2023-05-20T00:05:00;2.53;;;2.17;;
30303;SDS011;17112;48.636;10.152;2023-05-20T00:07:26;4.28;;;2.10;;
30303;SDS011;17112;48.636;10.152;2023-05-20T00:09:51;3.15;;;2.05;;
30303;SDS011;17112;48.636;10.152;2023-05-20T00:12:17;5.18;;;2.00;;
30303;SDS011;17112;48.636;10.152;2023-05-20T00:14:43;2.95;;;2.20;;
30303;SDS011;17112;48.636;10.152;2023-05-20T00:17:09;5.07;;;1.95;;
30303;SDS011;17112;48.636;10.152;2023-05-20T00:19:34;3.35;;;1.90;;
30303;SDS011;17112;48.636;10.152;2023-05-20T00:22:00;3.90;;;2.38;;
30303;SDS011;17112;48.636;10.152;2023-05-20T00:24:26;4.07;;;1.98;;
30303;SDS011;17112;48.636;10.152;2023-05-20T00:26:52;2.65;;;1.85;;
30303;SDS011;17112;48.636;10.152;2023-05-20T00:29:19;5.00;;;2.15;;
30303;SDS011;17112;48.636;10.152;2023-05-20T00:31:46;2.95;;;1.95;;
30303;SDS011;17112;48.636;10.152;2023-05-20T00:34:11;2.17;;;1.90;;
30303;SDS011;17112;48.636;10.152;2023-05-20T00:36:37;2.90;;;1.90;;
30303;SDS011;17112;48.636;10.152;2023-05-20T00:39:03;2.47;;;2.08;;
30303;SDS011;17112;48.636;10.152;2023-05-20T00:41:29;4.22;;;2.10;;
30303;SDS011;17112;48.636;10.152;2023-05-20T00:43:55;4.75;;;2.20;;
30303;SDS011;17112;48.636;10.152;2023-05-20T00:46:21;7.43;;;2.50;;
30303;SDS011;17112;48.636;10.152;2023-05-20T00:48:48;3.03;;;1.90;;
30303;SDS011;17112;48.636;10.152;2023-05-20T00:51:14;5.80;;;2.10;;
30303;SDS011;17112;48.636;10.152;2023-05-20T00:53:40;3.63;;;1.95;;
30303;SDS011;17112;48.636;10.152;2023-05-20T00:56:07;3.72;;;2.08;;
30303;SDS011;17112;48.636;10.152;2023-05-20T00:58:33;3.00;;;2.03;;
30303;SDS011;17112;48.636;10.152;2023-05-20T01:01:02;2.85;;;2.30;;
30303;SDS011;17112;48.636;10.152;2023-05-20T01:03:29;2.75;;;2.10;;
30303;SDS011;17112;48.636;10.152;2023-05-20T01:05:55;3.65;;;2.00;;
30303;SDS011;17112;48.636;10.152;2023-05-20T01:08:21;3.70;;;2.20;;
30303;SDS011;17112;48.636;10.152;2023-05-20T01:10:52;4.75;;;2.10;;
30303;SDS011;17112;48.636;10.152;2023-05-20T01:13:33;2.78;;;2.30;;
30303;SDS011;17112;48.636;10.152;2023-05-20T01:18:32;4.38;;;2.03;;
30303;SDS011;17112;48.636;10.152;2023-05-20T01:20:59;3.40;;;2.58;;
30303;SDS011;17112;48.636;10.152;2023-05-20T01:23:37;2.20;;;1.88;;
30303;SDS011;17112;48.636;10.152;2023-05-20T01:26:04;3.45;;;2.33;;
30303;SDS011;17112;48.636;10.152;2023-05-20T01:28:31;3.17;;;2.53;;
30303;SDS011;17112;48.636;10.152;2023-05-20T01:30:58;4.32;;;2.50;;
30303;SDS011;17112;48.636;10.152;2023-05-20T01:33:27;2.40;;;2.00;;
30303;SDS011;17112;48.636;10.152;2023-05-20T01:35:54;3.70;;;2.45;;
30303;SDS011;17112;48.636;10.152;2023-05-20T01:38:21;2.88;;;2.20;;
30303;SDS011;17112;48.636;10.152;2023-05-20T01:40:49;3.38;;;2.40;;
30303;SDS011;17112;48.636;10.152;2023-05-20T01:43:16;4.10;;;2.63;;
30303;SDS011;17112;48.636;10.152;2023-05-20T01:45:42;5.30;;;2.47;;
30303;SDS011;17112;48.636;10.152;2023-05-20T01:48:09;3.80;;;2.65;;
30303;SDS011;17112;48.636;10.152;2023-05-20T01:50:35;2.67;;;2.25;;
30303;SDS011;17112;48.636;10.152;2023-05-20T01:53:01;3.42;;;2.30;;
30303;SDS011;17112;48.636;10.152;2023-05-20T01:55:27;3.33;;;2.38;;
30303;SDS011;17112;48.636;10.152;2023-05-20T01:57:53;3.03;;;2.33;;
30303;SDS011;17112;48.636;10.152;2023-05-20T02:00:18;3.17;;;2.50;;
30303;SDS011;17112;48.636;10.152;2023-05-20T02:02:44;3.65;;;2.42;;
30303;SDS011;17112;48.636;10.152;2023-05-20T02:05:10;7.38;;;2.60;;
30303;SDS011;17112;48.636;10.152;2023-05-20T02:07:36;3.45;;;2.22;;
30303;SDS011;17112;48.636;10.152;2023-05-20T02:10:02;5.10;;;2.67;;
30303;SDS011;17112;48.636;10.152;2023-05-20T02:12:28;2.85;;;2.08;;
30303;SDS011;17112;48.636;10.152;2023-05-20T02:14:53;7.70;;;2.30;;
30303;SDS011;17112;48.636;10.152;2023-05-20T02:17:20;3.05;;;2.17;;
30303;SDS011;17112;48.636;10.152;2023-05-20T02:19:45;4.72;;;2.40;;
30303;SDS011;17112;48.636;10.152;2023-05-20T02:22:11;3.95;;;2.30;;
30303;SDS011;17112;48.636;10.152;2023-05-20T02:24:37;3.88;;;2.83;;
30303;SDS011;17112;48.636;10.152;2023-05-20T02:27:03;3.85;;;2.63;;
30303;SDS011;17112;48.636;10.152;2023-05-20T02:29:30;4.15;;;2.40;;
30303;SDS011;17112;48.636;10.152;2023-05-20T02:31:56;5.75;;;2.60;;
30303;SDS011;17112;48.636;10.152;2023-05-20T02:34:22;4.85;;;2.70;;
30303;SDS011;17112;48.636;10.152;2023-05-20T02:36:49;2.70;;;2.50;;
30303;SDS011;17112;48.636;10.152;2023-05-20T02:39:15;3.38;;;2.35;;
30303;SDS011;17112;48.636;10.152;2023-05-20T02:41:42;3.17;;;2.50;;
30303;SDS011;17112;48.636;10.152;2023-05-20T02:44:07;9.05;;;2.50;;
30303;SDS011;17112;48.636;10.152;2023-05-20T02:46:33;2.90;;;2.60;;
30303;SDS011;17112;48.636;10.152;2023-05-20T02:48:59;5.80;;;2.60;;
30303;SDS011;17112;48.636;10.152;2023-05-20T02:51:25;3.53;;;2.72;;
30303;SDS011;17112;48.636;10.152;2023-05-20T02:53:51;3.88;;;2.55;;
30303;SDS011;17112;48.636;10.152;2023-05-20T02:56:16;3.30;;;2.50;;
30303;SDS011;17112;48.636;10.152;2023-05-20T02:58:45;4.00;;;2.70;;
30303;SDS011;17112;48.636;10.152;2023-05-20T03:01:11;3.28;;;2.60;;
30303;SDS011;17112;48.636;10.152;2023-05-20T03:03:37;3.55;;;2.50;;
30303;SDS011;17112;48.636;10.152;2023-05-20T03:06:04;5.70;;;2.97;;
30303;SDS011;17112;48.636;10.152;2023-05-20T03:08:30;2.83;;;2.50;;
30303;SDS011;17112;48.636;10.152;2023-05-20T03:10:58;4.03;;;2.55;;
30303;SDS011;17112;48.636;10.152;2023-05-20T03:13:24;3.95;;;2.65;;
30303;SDS011;17112;48.636;10.152;2023-05-20T03:15:50;4.55;;;2.92;;
30303;SDS011;17112;48.636;10.152;2023-05-20T03:18:16;3.88;;;2.40;;
30303;SDS011;17112;48.636;10.152;2023-05-20T03:20:42;3.33;;;2.88;;
30303;SDS011;17112;48.636;10.152;2023-05-20T03:23:08;4.20;;;2.80;;
30303;SDS011;17112;48.636;10.152;2023-05-20T03:25:34;4.45;;;2.97;;
30303;SDS011;17112;48.636;10.152;2023-05-20T03:28:00;4.13;;;2.85;;
30303;SDS011;17112;48.636;10.152;2023-05-20T03:30:26;8.73;;;3.20;;
30303;SDS011;17112;48.636;10.152;2023-05-20T03:32:52;5.57;;;2.83;;
30303;SDS011;17112;48.636;10.152;2023-05-20T03:35:18;5.35;;;2.90;;
30303;SDS011;17112;48.636;10.152;2023-05-20T03:37:44;6.18;;;2.80;;
30303;SDS011;17112;48.636;10.152;2023-05-20T03:40:09;6.50;;;2.75;;
30303;SDS011;17112;48.636;10.152;2023-05-20T03:42:36;3.38;;;2.65;;
30303;SDS011;17112;48.636;10.152;2023-05-20T03:45:01;4.22;;;3.03;;
30303;SDS011;17112;48.636;10.152;2023-05-20T03:47:27;5.45;;;3.03;;
30303;SDS011;17112;48.636;10.152;2023-05-20T03:49:53;4.10;;;2.80;;
30303;SDS011;17112;48.636;10.152;2023-05-20T03:52:19;6.68;;;2.88;;
30303;SDS011;17112;48.636;10.152;2023-05-20T03:54:45;5.10;;;3.00;;
30303;SDS011;17112;48.636;10.152;2023-05-20T03:57:11;3.63;;;2.83;;
30303;SDS011;17112;48.636;10.152;2023-05-20T03:59:37;3.83;;;2.95;;
30303;SDS011;17112;48.636;10.152;2023-05-20T04:02:03;4.70;;;3.35;;
30303;SDS011;17112;48.636;10.152;2023-05-20T04:04:30;3.55;;;2.88;;
30303;SDS011;17112;48.636;10.152;2023-05-20T04:06:56;4.10;;;3.00;;
30303;SDS011;17112;48.636;10.152;2023-05-20T04:09:24;4.63;;;3.55;;
30303;SDS011;17112;48.636;10.152;2023-05-20T04:11:50;4.22;;;3.17;;
30303;SDS011;17112;48.636;10.152;2023-05-20T04:14:16;5.22;;;3.33;;
30303;SDS011;17112;48.636;10.152;2023-05-20T04:16:42;8.40;;;3.25;;
30303;SDS011;17112;48.636;10.152;2023-05-20T04:19:09;3.42;;;2.92;;
30303;SDS011;17112;48.636;10.152;2023-05-20T04:21:35;4.55;;;3.10;;
30303;SDS011;17112;48.636;10.152;2023-05-20T04:24:01;4.25;;;3.17;;
30303;SDS011;17112;48.636;10.152;2023-05-20T04:26:27;5.10;;;3.40;;
30303;SDS011;17112;48.636;10.152;2023-05-20T04:28:53;5.32;;;3.38;;
30303;SDS011;17112;48.636;10.152;2023-05-20T04:31:22;7.22;;;3.70;;
30303;SDS011;17112;48.636;10.152;2023-05-20T04:33:51;5.28;;;3.40;;
30303;SDS011;17112;48.636;10.152;2023-05-20T04:36:17;6.05;;;3.60;;
30303;SDS011;17112;48.636;10.152;2023-05-20T04:38:43;3.53;;;3.03;;
30303;SDS011;17112;48.636;10.152;2023-05-20T04:41:09;5.18;;;3.33;;
30303;SDS011;17112;48.636;10.152;2023-05-20T04:43:35;5.88;;;2.97;;
30303;SDS011;17112;48.636;10.152;2023-05-20T04:46:03;4.60;;;3.33;;
30303;SDS011;17112;48.636;10.152;2023-05-20T04:48:30;5.70;;;3.70;;
30303;SDS011;17112;48.636;10.152;2023-05-20T04:50:56;5.05;;;3.35;;
30303;SDS011;17112;48.636;10.152;2023-05-20T04:53:22;4.05;;;3.40;;
30303;SDS011;17112;48.636;10.152;2023-05-20T04:55:48;6.22;;;3.60;;
30303;SDS011;17112;48.636;10.152;2023-05-20T04:58:17;4.47;;;3.35;;
30303;SDS011;17112;48.636;10.152;2023-05-20T05:00:44;6.10;;;3.25;;
30303;SDS011;17112;48.636;10.152;2023-05-20T05:03:10;3.92;;;3.05;;
30303;SDS011;17112;48.636;10.152;2023-05-20T05:05:40;4.88;;;3.28;;
30303;SDS011;17112;48.636;10.152;2023-05-20T05:08:06;5.38;;;3.35;;
30303;SDS011;17112;48.636;10.152;2023-05-20T05:10:33;3.83;;;3.40;;
30303;SDS011;17112;48.636;10.152;2023-05-20T05:12:59;12.07;;;3.30;;
30303;SDS011;17112;48.636;10.152;2023-05-20T05:15:25;6.50;;;3.92;;
30303;SDS011;17112;48.636;10.152;2023-05-20T05:17:51;5.97;;;3.33;;
30303;SDS011;17112;48.636;10.152;2023-05-20T05:20:17;4.80;;;3.53;;
30303;SDS011;17112;48.636;10.152;2023-05-20T05:22:43;8.25;;;3.72;;
30303;SDS011;17112;48.636;10.152;2023-05-20T05:25:10;11.75;;;3.60;;
30303;SDS011;17112;48.636;10.152;2023-05-20T05:27:36;4.80;;;3.65;;
30303;SDS011;17112;48.636;10.152;2023-05-20T05:30:02;5.40;;;3.47;;
30303;SDS011;17112;48.636;10.152;2023-05-20T05:32:29;4.07;;;3.40;;
30303;SDS011;17112;48.636;10.152;2023-05-20T05:34:55;4.60;;;3.55;;
30303;SDS011;17112;48.636;10.152;2023-05-20T05:37:20;8.50;;;3.45;;
30303;SDS011;17112;48.636;10.152;2023-05-20T05:39:46;5.57;;;3.78;;
30303;SDS011;17112;48.636;10.152;2023-05-20T05:42:12;5.18;;;3.65;;
30303;SDS011;17112;48.636;10.152;2023-05-20T05:44:38;5.32;;;3.67;;
30303;SDS011;17112;48.636;10.152;2023-05-20T05:47:04;6.68;;;4.00;;
30303;SDS011;17112;48.636;10.152;2023-05-20T05:49:30;4.85;;;3.53;;
30303;SDS011;17112;48.636;10.152;2023-05-20T05:51:56;4.47;;;4.03;;
30303;SDS011;17112;48.636;10.152;2023-05-20T05:54:22;6.03;;;4.05;;
30303;SDS011;17112;48.636;10.152;2023-05-20T05:56:49;4.15;;;3.70;;
30303;SDS011;17112;48.636;10.152;2023-05-20T05:59:15;4.65;;;3.97;;
30303;SDS011;17112;48.636;10.152;2023-05-20T06:01:41;10.70;;;4.85;;
30303;SDS011;17112;48.636;10.152;2023-05-20T06:04:07;7.82;;;3.65;;
30303;SDS011;17112;48.636;10.152;2023-05-20T06:06:33;5.15;;;4.53;;
30303;SDS011;17112;48.636;10.152;2023-05-20T06:08:58;7.63;;;4.65;;
30303;SDS011;17112;48.636;10.152;2023-05-20T06:11:24;4.88;;;4.10;;
30303;SDS011;17112;48.636;10.152;2023-05-20T06:13:50;6.13;;;4.40;;
30303;SDS011;17112;48.636;10.152;2023-05-20T06:16:16;7.50;;;4.28;;
30303;SDS011;17112;48.636;10.152;2023-05-20T06:18:42;7.85;;;5.20;;
30303;SDS011;17112;48.636;10.152;2023-05-20T06:21:09;7.13;;;4.45;;
30303;SDS011;17112;48.636;10.152;2023-05-20T06:23:36;6.07;;;4.63;;
30303;SDS011;17112;48.636;10.152;2023-05-20T06:26:01;6.75;;;4.75;;
30303;SDS011;17112;48.636;10.152;2023-05-20T06:28:28;6.60;;;4.85;;
30303;SDS011;17112;48.636;10.152;2023-05-20T06:30:54;8.75;;;4.40;;
30303;SDS011;17112;48.636;10.152;2023-05-20T06:33:23;6.97;;;4.15;;
30303;SDS011;17112;48.636;10.152;2023-05-20T06:35:53;8.23;;;5.35;;
30303;SDS011;17112;48.636;10.152;2023-05-20T06:38:19;5.95;;;4.72;;
30303;SDS011;17112;48.636;10.152;2023-05-20T06:40:45;6.22;;;5.10;;
30303;SDS011;17112;48.636;10.152;2023-05-20T06:43:13;11.98;;;4.93;;
30303;SDS011;17112;48.636;10.152;2023-05-20T06:45:39;6.38;;;4.75;;
30303;SDS011;17112;48.636;10.152;2023-05-20T06:48:06;8.27;;;5.15;;
30303;SDS011;17112;48.636;10.152;2023-05-20T06:50:32;7.40;;;4.80;;
30303;SDS011;17112;48.636;10.152;2023-05-20T06:52:57;5.00;;;4.45;;
30303;SDS011;17112;48.636;10.152;2023-05-20T06:55:23;5.82;;;4.72;;
30303;SDS011;17112;48.636;10.152;2023-05-20T06:57:50;6.97;;;5.00;;
30303;SDS011;17112;48.636;10.152;2023-05-20T07:00:16;4.78;;;4.25;;
30303;SDS011;17112;48.636;10.152;2023-05-20T07:02:41;5.63;;;4.63;;
30303;SDS011;17112;48.636;10.152;2023-05-20T07:05:08;5.18;;;4.60;;
30303;SDS011;17112;48.636;10.152;2023-05-20T07:07:34;7.20;;;4.85;;
30303;SDS011;17112;48.636;10.152;2023-05-20T07:10:00;5.82;;;4.15;;
30303;SDS011;17112;48.636;10.152;2023-05-20T07:12:25;6.93;;;4.35;;
30303;SDS011;17112;48.636;10.152;2023-05-20T07:14:51;5.97;;;4.20;;
30303;SDS011;17112;48.636;10.152;2023-05-20T07:17:17;8.23;;;4.13;;
30303;SDS011;17112;48.636;10.152;2023-05-20T07:19:42;9.13;;;4.13;;
30303;SDS011;17112;48.636;10.152;2023-05-20T07:22:08;5.15;;;4.15;;
30303;SDS011;17112;48.636;10.152;2023-05-20T07:24:35;8.13;;;4.15;;
30303;SDS011;17112;48.636;10.152;2023-05-20T07:27:01;5.03;;;4.10;;
30303;SDS011;17112;48.636;10.152;2023-05-20T07:29:27;26.75;;;7.18;;
30303;SDS011;17112;48.636;10.152;2023-05-20T07:31:52;6.18;;;4.55;;
30303;SDS011;17112;48.636;10.152;2023-05-20T07:34:18;8.15;;;4.28;;
30303;SDS011;17112;48.636;10.152;2023-05-20T07:36:44;5.00;;;3.90;;
30303;SDS011;17112;48.636;10.152;2023-05-20T07:39:10;4.20;;;3.55;;
30303;SDS011;17112;48.636;10.152;2023-05-20T07:41:38;5.65;;;4.00;;
30303;SDS011;17112;48.636;10.152;2023-05-20T07:44:04;4.30;;;3.90;;
30303;SDS011;17112;48.636;10.152;2023-05-20T07:46:33;6.72;;;4.07;;
30303;SDS011;17112;48.636;10.152;2023-05-20T07:48:59;16.60;;;3.85;;
30303;SDS011;17112;48.636;10.152;2023-05-20T07:51:24;4.60;;;3.50;;
30303;SDS011;17112;48.636;10.152;2023-05-20T07:53:50;6.03;;;3.80;;
30303;SDS011;17112;48.636;10.152;2023-05-20T07:56:16;4.63;;;3.35;;
30303;SDS011;17112;48.636;10.152;2023-05-20T07:58:42;4.22;;;3.60;;
30303;SDS011;17112;48.636;10.152;2023-05-20T08:01:08;4.68;;;3.47;;
30303;SDS011;17112;48.636;10.152;2023-05-20T08:03:36;4.95;;;3.75;;
30303;SDS011;17112;48.636;10.152;2023-05-20T08:06:02;4.28;;;3.53;;
30303;SDS011;17112;48.636;10.152;2023-05-20T08:08:28;4.53;;;3.55;;
30303;SDS011;17112;48.636;10.152;2023-05-20T08:10:54;3.20;;;2.88;;
30303;SDS011;17112;48.636;10.152;2023-05-20T08:13:20;3.92;;;3.47;;
30303;SDS011;17112;48.636;10.152;2023-05-20T08:15:47;3.35;;;3.00;;
30303;SDS011;17112;48.636;10.152;2023-05-20T08:18:13;8.40;;;3.33;;
30303;SDS011;17112;48.636;10.152;2023-05-20T08:20:39;8.45;;;3.35;;
30303;SDS011;17112;48.636;10.152;2023-05-20T08:23:06;5.30;;;3.20;;
30303;SDS011;17112;48.636;10.152;2023-05-20T08:25:32;4.43;;;3.25;;
30303;SDS011;17112;48.636;10.152;2023-05-20T08:28:00;3.90;;;3.30;;
30303;SDS011;17112;48.636;10.152;2023-05-20T08:30:28;3.50;;;2.85;;
30303;SDS011;17112;48.636;10.152;2023-05-20T08:32:54;7.53;;;3.45;;
30303;SDS011;17112;48.636;10.152;2023-05-20T08:35:20;4.95;;;3.40;;
30303;SDS011;17112;48.636;10.152;2023-05-20T08:37:47;5.85;;;4.03;;
30303;SDS011;17112;48.636;10.152;2023-05-20T08:40:13;3.95;;;3.13;;
30303;SDS011;17112;48.636;10.152;2023-05-20T08:42:42;9.73;;;3.05;;
30303;SDS011;17112;48.636;10.152;2023-05-20T08:45:09;6.32;;;3.40;;
30303;SDS011;17112;48.636;10.152;2023-05-20T08:47:39;3.63;;;3.03;;
30303;SDS011;17112;48.636;10.152;2023-05-20T08:50:07;7.05;;;3.15;;
30303;SDS011;17112;48.636;10.152;2023-05-20T08:52:34;2.90;;;2.70;;
30303;SDS011;17112;48.636;10.152;2023-05-20T08:55:03;4.93;;;2.75;;
30303;SDS011;17112;48.636;10.152;2023-05-20T08:57:32;4.18;;;2.67;;
30303;SDS011;17112;48.636;10.152;2023-05-20T08:59:58;5.30;;;3.17;;
30303;SDS011;17112;48.636;10.152;2023-05-20T09:02:24;4.30;;;3.17;;
30303;SDS011;17112;48.636;10.152;2023-05-20T09:04:50;5.47;;;3.33;;
30303;SDS011;17112;48.636;10.152;2023-05-20T09:07:26;4.57;;;3.15;;
30303;SDS011;17112;48.636;10.152;2023-05-20T09:09:52;3.50;;;2.97;;
30303;SDS011;17112;48.636;10.152;2023-05-20T09:12:19;7.25;;;3.30;;
30303;SDS011;17112;48.636;10.152;2023-05-20T09:14:45;4.88;;;4.20;;
30303;SDS011;17112;48.636;10.152;2023-05-20T09:17:11;4.88;;;3.33;;
30303;SDS011;17112;48.636;10.152;2023-05-20T09:19:37;5.43;;;3.65;;
30303;SDS011;17112;48.636;10.152;2023-05-20T09:22:03;3.17;;;2.80;;
30303;SDS011;17112;48.636;10.152;2023-05-20T09:24:30;3.40;;;3.03;;
30303;SDS011;17112;48.636;10.152;2023-05-20T09:26:55;8.27;;;3.05;;
30303;SDS011;17112;48.636;10.152;2023-05-20T09:29:22;5.75;;;3.22;;
30303;SDS011;17112;48.636;10.152;2023-05-20T09:31:48;6.28;;;3.30;;
30303;SDS011;17112;48.636;10.152;2023-05-20T09:34:18;3.75;;;3.28;;
30303;SDS011;17112;48.636;10.152;2023-05-20T09:36:45;6.25;;;3.15;;
30303;SDS011;17112;48.636;10.152;2023-05-20T09:39:15;4.10;;;3.20;;
30303;SDS011;17112;48.636;10.152;2023-05-20T09:42:06;3.97;;;3.13;;
30303;SDS011;17112;48.636;10.152;2023-05-20T09:44:41;3.10;;;2.58;;
30303;SDS011;17112;48.636;10.152;2023-05-20T09:47:09;3.10;;;2.85;;
30303;SDS011;17112;48.636;10.152;2023-05-20T09:49:35;4.97;;;2.88;;
30303;SDS011;17112;48.636;10.152;2023-05-20T09:52:03;4.05;;;3.08;;
30303;SDS011;17112;48.636;10.152;2023-05-20T09:54:30;3.55;;;3.03;;
30303;SDS011;17112;48.636;10.152;2023-05-20T09:56:57;3.67;;;2.78;;
30303;SDS011;17112;48.636;10.152;2023-05-20T09:59:24;6.47;;;3.13;;
30303;SDS011;17112;48.636;10.152;2023-05-20T10:01:51;5.20;;;2.67;;
30303;SDS011;17112;48.636;10.152;2023-05-20T10:04:17;5.93;;;2.53;;
30303;SDS011;17112;48.636;10.152;2023-05-20T10:15:21;3.35;;;2.72;;
30303;SDS011;17112;48.636;10.152;2023-05-20T10:20:26;3.13;;;2.40;;
30303;SDS011;17112;48.636;10.152;2023-05-20T10:22:56;2.95;;;2.63;;
30303;SDS011;17112;48.636;10.152;2023-05-20T10:25:26;7.88;;;2.78;;
30303;SDS011;17112;48.636;10.152;2023-05-20T10:28:02;2.83;;;2.40;;
30303;SDS011;17112;48.636;10.152;2023-05-20T10:30:31;3.83;;;2.40;;
30303;SDS011;17112;48.636;10.152;2023-05-20T10:33:01;4.15;;;2.92;;
30303;SDS011;17112;48.636;10.152;2023-05-20T10:35:29;5.10;;;2.97;;
30303;SDS011;17112;48.636;10.152;2023-05-20T10:38:05;2.92;;;2.17;;
30303;SDS011;17112;48.636;10.152;2023-05-20T10:40:35;2.80;;;2.45;;
30303;SDS011;17112;48.636;10.152;2023-05-20T10:43:07;5.57;;;2.60;;
30303;SDS011;17112;48.636;10.152;2023-05-20T10:45:35;3.22;;;2.42;;
30303;SDS011;17112;48.636;10.152;2023-05-20T10:48:25;4.72;;;2.80;;
30303;SDS011;17112;48.636;10.152;2023-05-20T10:50:59;6.32;;;2.40;;
30303;SDS011;17112;48.636;10.152;2023-05-20T10:53:37;3.85;;;2.55;;
30303;SDS011;17112;48.636;10.152;2023-05-20T10:56:04;4.63;;;2.75;;
30303;SDS011;17112;48.636;10.152;2023-05-20T10:58:37;3.03;;;2.22;;
30303;SDS011;17112;48.636;10.152;2023-05-20T11:01:03;3.88;;;2.60;;
30303;SDS011;17112;48.636;10.152;2023-05-20T11:03:29;3.88;;;2.60;;
30303;SDS011;17112;48.636;10.152;2023-05-20T11:05:55;3.60;;;2.75;;
30303;SDS011;17112;48.636;10.152;2023-05-20T11:08:21;2.38;;;2.17;;
30303;SDS011;17112;48.636;10.152;2023-05-20T11:10:46;2.53;;;2.33;;
30303;SDS011;17112;48.636;10.152;2023-05-20T11:13:12;3.15;;;2.47;;
30303;SDS011;17112;48.636;10.152;2023-05-20T11:15:39;4.22;;;2.83;;
30303;SDS011;17112;48.636;10.152;2023-05-20T11:18:06;9.40;;;5.53;;
30303;SDS011;17112;48.636;10.152;2023-05-20T11:20:32;11.90;;;6.75;;
30303;SDS011;17112;48.636;10.152;2023-05-20T11:23:00;3.45;;;3.13;;
30303;SDS011;17112;48.636;10.152;2023-05-20T11:25:30;3.30;;;2.85;;
30303;SDS011;17112;48.636;10.152;2023-05-20T11:27:58;4.95;;;2.78;;
30303;SDS011;17112;48.636;10.152;2023-05-20T11:30:23;3.95;;;2.67;;
30303;SDS011;17112;48.636;10.152;2023-05-20T11:32:59;3.83;;;2.75;;
30303;SDS011;17112;48.636;10.152;2023-05-20T11:35:27;5.55;;;2.72;;
30303;SDS011;17112;48.636;10.152;2023-05-20T11:38:03;5.85;;;3.03;;
30303;SDS011;17112;48.636;10.152;2023-05-20T11:40:32;3.70;;;2.67;;
30303;SDS011;17112;48.636;10.152;2023-05-20T11:42:59;6.68;;;2.67;;
30303;SDS011;17112;48.636;10.152;2023-05-20T11:45:25;3.22;;;2.63;;
30303;SDS011;17112;48.636;10.152;2023-05-20T11:48:01;2.90;;;2.67;;
30303;SDS011;17112;48.636;10.152;2023-05-20T11:50:33;3.17;;;2.67;;
30303;SDS011;17112;48.636;10.152;2023-05-20T11:53:05;5.57;;;3.13;;
30303;SDS011;17112;48.636;10.152;2023-05-20T11:55:56;4.03;;;3.38;;
30303;SDS011;17112;48.636;10.152;2023-05-20T11:58:24;4.95;;;3.08;;
30303;SDS011;17112;48.636;10.152;2023-05-20T12:00:51;4.72;;;2.28;;
30303;SDS011;17112;48.636;10.152;2023-05-20T12:03:17;11.60;;;6.85;;
30303;SDS011;17112;48.636;10.152;2023-05-20T12:05:43;4.85;;;3.67;;
30303;SDS011;17112;48.636;10.152;2023-05-20T12:08:11;6.63;;;2.80;;
30303;SDS011;17112;48.636;10.152;2023-05-20T12:10:37;4.53;;;2.92;;
30303;SDS011;17112;48.636;10.152;2023-05-20T12:13:03;4.00;;;2.85;;
30303;SDS011;17112;48.636;10.152;2023-05-20T12:15:32;4.88;;;3.00;;
30303;SDS011;17112;48.636;10.152;2023-05-20T12:18:01;4.00;;;3.25;;
30303;SDS011;17112;48.636;10.152;2023-05-20T12:20:27;3.67;;;2.80;;
30303;SDS011;17112;48.636;10.152;2023-05-20T12:22:55;4.53;;;2.75;;
30303;SDS011;17112;48.636;10.152;2023-05-20T12:25:21;4.03;;;2.65;;
30303;SDS011;17112;48.636;10.152;2023-05-20T12:27:48;3.45;;;2.58;;
30303;SDS011;17112;48.636;10.152;2023-05-20T12:30:15;4.22;;;2.80;;
30303;SDS011;17112;48.636;10.152;2023-05-20T12:32:42;2.90;;;2.60;;
30303;SDS011;17112;48.636;10.152;2023-05-20T12:35:09;4.00;;;2.35;;
30303;SDS011;17112;48.636;10.152;2023-05-20T12:37:35;4.50;;;2.70;;
30303;SDS011;17112;48.636;10.152;2023-05-20T12:40:02;2.90;;;2.60;;
30303;SDS011;17112;48.636;10.152;2023-05-20T12:42:36;2.63;;;2.28;;
30303;SDS011;17112;48.636;10.152;2023-05-20T12:45:02;3.40;;;2.65;;
30303;SDS011;17112;48.636;10.152;2023-05-20T12:47:29;8.20;;;2.40;;
30303;SDS011;17112;48.636;10.152;2023-05-20T12:49:56;4.95;;;2.78;;
30303;SDS011;17112;48.636;10.152;2023-05-20T12:52:22;5.65;;;2.95;;
30303;SDS011;17112;48.636;10.152;2023-05-20T12:54:48;4.18;;;2.90;;
30303;SDS011;17112;48.636;10.152;2023-05-20T12:57:13;4.30;;;3.28;;
30303;SDS011;17112;48.636;10.152;2023-05-20T12:59:42;4.93;;;2.55;;
30303;SDS011;17112;48.636;10.152;2023-05-20T13:02:07;3.10;;;2.58;;
30303;SDS011;17112;48.636;10.152;2023-05-20T13:04:34;4.00;;;2.53;;
30303;SDS011;17112;48.636;10.152;2023-05-20T13:07:00;6.47;;;2.50;;
30303;SDS011;17112;48.636;10.152;2023-05-20T13:09:26;4.53;;;2.58;;
30303;SDS011;17112;48.636;10.152;2023-05-20T13:11:52;3.80;;;2.63;;
30303;SDS011;17112;48.636;10.152;2023-05-20T13:14:17;3.25;;;2.83;;
30303;SDS011;17112;48.636;10.152;2023-05-20T13:16:43;4.43;;;2.42;;
30303;SDS011;17112;48.636;10.152;2023-05-20T13:19:09;3.25;;;2.28;;
30303;SDS011;17112;48.636;10.152;2023-05-20T13:21:35;4.03;;;3.63;;
30303;SDS011;17112;48.636;10.152;2023-05-20T13:24:01;2.88;;;2.45;;
30303;SDS011;17112;48.636;10.152;2023-05-20T13:26:28;2.85;;;2.47;;
30303;SDS011;17112;48.636;10.152;2023-05-20T13:28:53;4.57;;;2.97;;
30303;SDS011;17112;48.636;10.152;2023-05-20T13:31:19;3.53;;;2.65;;
30303;SDS011;17112;48.636;10.152;2023-05-20T13:33:45;6.20;;;2.97;;
30303;SDS011;17112;48.636;10.152;2023-05-20T13:36:11;3.35;;;2.63;;
30303;SDS011;17112;48.636;10.152;2023-05-20T13:38:37;2.47;;;2.28;;
30303;SDS011;17112;48.636;10.152;2023-05-20T13:41:03;3.72;;;2.58;;
30303;SDS011;17112;48.636;10.152;2023-05-20T13:43:29;2.72;;;2.42;;
30303;SDS011;17112;48.636;10.152;2023-05-20T13:45:55;3.17;;;2.50;;
30303;SDS011;17112;48.636;10.152;2023-05-20T13:48:21;3.50;;;2.90;;
30303;SDS011;17112;48.636;10.152;2023-05-20T13:50:47;5.63;;;2.40;;
30303;SDS011;17112;48.636;10.152;2023-05-20T13:53:13;4.53;;;3.00;;
30303;SDS011;17112;48.636;10.152;2023-05-20T13:55:38;2.58;;;2.38;;
30303;SDS011;17112;48.636;10.152;2023-05-20T13:58:05;5.38;;;2.30;;
30303;SDS011;17112;48.636;10.152;2023-05-20T14:00:35;5.75;;;2.30;;
30303;SDS011;17112;48.636;10.152;2023-05-20T14:03:02;5.80;;;2.70;;
30303;SDS011;17112;48.636;10.152;2023-05-20T14:05:29;3.83;;;2.60;;
30303;SDS011;17112;48.636;10.152;2023-05-20T14:07:55;4.43;;;2.58;;
30303;SDS011;17112;48.636;10.152;2023-05-20T14:10:21;6.63;;;2.58;;
30303;SDS011;17112;48.636;10.152;2023-05-20T14:12:47;7.40;;;2.60;;
30303;SDS011;17112;48.636;10.152;2023-05-20T14:15:13;3.72;;;2.28;;
30303;SDS011;17112;48.636;10.152;2023-05-20T14:17:38;3.05;;;2.00;;
30303;SDS011;17112;48.636;10.152;2023-05-20T14:20:04;2.08;;;1.58;;
30303;SDS011;17112;48.636;10.152;2023-05-20T14:22:30;2.35;;;1.83;;
30303;SDS011;17112;48.636;10.152;2023-05-20T14:24:56;2.28;;;1.65;;
30303;SDS011;17112;48.636;10.152;2023-05-20T14:27:22;3.10;;;1.73;;
30303;SDS011;17112;48.636;10.152;2023-05-20T14:29:48;2.08;;;1.88;;
30303;SDS011;17112;48.636;10.152;2023-05-20T14:32:13;2.97;;;2.25;;
30303;SDS011;17112;48.636;10.152;2023-05-20T14:34:39;3.38;;;2.90;;
30303;SDS011;17112;48.636;10.152;2023-05-20T14:37:05;5.22;;;2.53;;
30303;SDS011;17112;48.636;10.152;2023-05-20T14:39:34;6.53;;;3.10;;
30303;SDS011;17112;48.636;10.152;2023-05-20T14:42:00;6.32;;;3.20;;
30303;SDS011;17112;48.636;10.152;2023-05-20T14:44:27;5.18;;;3.25;;